createdAt,value
2018-07-27T00:01:01.888Z,10.67
2018-07-27T00:03:30.648Z,11.10
2018-07-27T00:05:59.370Z,10.23
2018-07-27T00:08:28.123Z,10.33
2018-07-27T00:10:56.796Z,10.67
2018-07-27T00:13:25.517Z,11.03
2018-07-27T00:15:54.173Z,11.43
2018-07-27T00:18:22.855Z,11.03
2018-07-27T00:20:51.533Z,11.03
2018-07-27T00:23:20.247Z,11.60
2018-07-27T00:25:48.956Z,10.50
2018-07-27T00:28:23.465Z,10.43
2018-07-27T00:30:55.229Z,10.97
2018-07-27T00:33:23.918Z,10.40
2018-07-27T00:35:52.590Z,10.33
2018-07-27T00:38:21.328Z,10.80
2018-07-27T00:40:50.028Z,11.90
2018-07-27T00:43:18.686Z,11.43
2018-07-27T00:45:47.377Z,11.20
2018-07-27T00:48:16.014Z,11.33
2018-07-27T00:50:44.745Z,10.97
2018-07-27T00:53:13.438Z,11.30
2018-07-27T00:55:42.111Z,11.77
2018-07-27T00:58:10.771Z,10.87
2018-07-27T01:00:39.456Z,11.57
2018-07-27T01:03:08.746Z,10.63
2018-07-27T01:05:37.435Z,10.13
2018-07-27T01:08:06.423Z,9.73
2018-07-27T01:10:35.096Z,10.03
2018-07-27T01:13:03.863Z,9.03
2018-07-27T01:15:32.395Z,9.77
2018-07-27T01:18:01.098Z,10.73
2018-07-27T01:20:29.891Z,10.33
2018-07-27T01:22:58.580Z,9.50
2018-07-27T01:25:27.276Z,9.47
2018-07-27T01:27:55.763Z,10.10
2018-07-27T01:30:24.268Z,10.23
2018-07-27T01:32:53.019Z,10.13
2018-07-27T01:35:21.547Z,10.60
2018-07-27T01:37:50.203Z,10.97
2018-07-27T01:40:18.643Z,11.90
2018-07-27T01:42:47.346Z,11.27
2018-07-27T01:45:16.051Z,12.27
2018-07-27T01:47:44.496Z,12.00
2018-07-27T01:50:13.185Z,10.33
2018-07-27T01:52:41.881Z,10.47
2018-07-27T01:55:10.635Z,11.37
2018-07-27T01:57:39.325Z,11.23
2018-07-27T02:00:08.183Z,11.90
2018-07-27T02:02:36.885Z,11.33
2018-07-27T02:05:06.564Z,12.17
2018-07-27T02:07:35.032Z,11.63
2018-07-27T02:10:04.210Z,11.40
2018-07-27T02:12:32.900Z,11.67
2018-07-27T02:15:01.543Z,12.00
2018-07-27T02:17:30.247Z,11.93
2018-07-27T02:19:58.895Z,12.80
2018-07-27T02:22:27.585Z,11.53
2018-07-27T02:24:56.239Z,13.90
2018-07-27T02:27:24.738Z,13.57
2018-07-27T02:29:53.406Z,12.30
2018-07-27T02:32:21.906Z,12.13
2018-07-27T02:34:50.652Z,12.73
2018-07-27T02:37:19.320Z,12.50
2018-07-27T02:39:47.992Z,12.07
2018-07-27T02:42:16.735Z,11.50
2018-07-27T02:44:45.315Z,10.87
2018-07-27T02:47:14.029Z,11.53
2018-07-27T02:49:42.763Z,12.07
2018-07-27T02:52:11.545Z,9.83
2018-07-27T02:54:40.344Z,9.93
2018-07-27T02:57:09.043Z,10.23
2018-07-27T02:59:37.773Z,10.20
2018-07-27T03:02:06.648Z,11.20
2018-07-27T03:04:35.336Z,9.73
2018-07-27T03:07:04.168Z,9.73
2018-07-27T03:09:32.869Z,9.73
2018-07-27T03:12:01.575Z,10.37
2018-07-27T03:14:30.229Z,10.80
2018-07-27T03:16:58.918Z,11.50
2018-07-27T03:19:27.611Z,11.07
2018-07-27T03:21:56.138Z,10.87
2018-07-27T03:24:24.802Z,11.47
2018-07-27T03:26:53.289Z,10.83
2018-07-27T03:29:21.927Z,11.87
2018-07-27T03:31:50.751Z,10.70
2018-07-27T03:34:19.450Z,9.90
2018-07-27T03:36:48.116Z,11.00
2018-07-27T03:39:16.686Z,12.70
2018-07-27T03:41:45.333Z,13.00
2018-07-27T03:44:14.058Z,13.30
2018-07-27T03:46:42.710Z,11.80
2018-07-27T03:49:11.471Z,11.70
2018-07-27T03:51:40.151Z,11.80
2018-07-27T03:54:08.876Z,13.67
2018-07-27T03:56:37.556Z,12.60
2018-07-27T03:59:06.224Z,11.83
2018-07-27T04:01:35.043Z,11.30
2018-07-27T04:04:03.700Z,12.07
2018-07-27T04:06:32.336Z,11.90
2018-07-27T04:09:00.990Z,14.23
2018-07-27T04:11:29.615Z,12.60
2018-07-27T04:13:58.119Z,11.03
2018-07-27T04:16:26.828Z,10.03
2018-07-27T04:18:55.525Z,9.80
2018-07-27T04:21:24.247Z,9.87
2018-07-27T04:23:52.715Z,9.83
2018-07-27T04:26:21.439Z,9.93
2018-07-27T04:28:50.108Z,9.47
2018-07-27T04:31:18.617Z,9.67
2018-07-27T04:33:47.323Z,9.70
2018-07-27T04:36:16.016Z,9.30
2018-07-27T04:38:44.665Z,9.67
2018-07-27T04:41:13.368Z,9.27
2018-07-27T04:43:42.046Z,9.10
2018-07-27T04:46:10.744Z,9.50
2018-07-27T04:48:39.508Z,9.93
2018-07-27T04:51:08.193Z,10.53
2018-07-27T04:53:36.955Z,10.20
2018-07-27T04:56:05.817Z,10.17
2018-07-27T04:58:34.535Z,9.27
2018-07-27T05:01:03.070Z,9.43
2018-07-27T05:03:31.765Z,10.50
2018-07-27T05:06:00.443Z,10.77
2018-07-27T05:08:29.103Z,10.67
2018-07-27T05:10:57.795Z,10.47
2018-07-27T05:13:26.463Z,10.97
2018-07-27T05:15:55.245Z,10.20
2018-07-27T05:18:24.062Z,9.77
2018-07-27T05:20:52.736Z,9.50
2018-07-27T05:23:21.474Z,9.00
2018-07-27T05:25:50.095Z,8.77
2018-07-27T05:28:18.741Z,9.30
2018-07-27T05:30:47.386Z,9.83
2018-07-27T05:33:16.097Z,9.67
2018-07-27T05:35:44.819Z,9.83
2018-07-27T05:38:13.467Z,9.53
2018-07-27T05:40:42.133Z,9.93
2018-07-27T05:43:10.781Z,10.07
2018-07-27T05:45:39.420Z,9.80
2018-07-27T05:48:08.106Z,9.93
2018-07-27T05:50:36.766Z,10.00
2018-07-27T05:53:05.434Z,10.97
2018-07-27T05:55:34.158Z,11.17
2018-07-27T05:58:02.953Z,10.37
2018-07-27T06:00:31.688Z,11.40
2018-07-27T06:03:00.444Z,11.40
2018-07-27T06:05:29.180Z,10.43
2018-07-27T06:07:57.825Z,10.60
2018-07-27T06:10:26.395Z,10.80
2018-07-27T06:12:55.164Z,10.30
2018-07-27T06:15:24.099Z,10.63
2018-07-27T06:17:52.887Z,10.30
2018-07-27T06:20:21.581Z,10.37
2018-07-27T06:22:50.336Z,10.17
2018-07-27T06:25:18.870Z,10.00
2018-07-27T06:27:47.663Z,9.50
2018-07-27T06:30:16.387Z,9.73
2018-07-27T06:32:45.028Z,9.07
2018-07-27T06:35:13.733Z,9.03
2018-07-27T06:37:42.490Z,8.33
2018-07-27T06:40:11.248Z,8.63
2018-07-27T06:42:39.718Z,8.13
2018-07-27T06:45:08.252Z,7.53
2018-07-27T06:47:36.920Z,8.40
2018-07-27T06:50:05.947Z,7.75
2018-07-27T06:52:34.805Z,8.18
2018-07-27T06:55:03.306Z,7.53
2018-07-27T06:57:31.933Z,7.95
2018-07-27T07:00:00.579Z,7.70
2018-07-27T07:02:29.240Z,8.08
2018-07-27T07:04:57.899Z,7.80
2018-07-27T07:07:26.627Z,8.08
2018-07-27T07:09:55.354Z,8.18
2018-07-27T07:12:23.981Z,7.95
2018-07-27T07:14:52.902Z,8.35
2018-07-27T07:17:21.631Z,7.50
2018-07-27T07:19:50.274Z,7.75
2018-07-27T07:22:18.974Z,7.65
2018-07-27T07:24:47.664Z,7.60
2018-07-27T07:27:16.375Z,6.75
2018-07-27T07:29:44.844Z,7.40
2018-07-27T07:32:13.332Z,6.20
2018-07-27T07:34:42.804Z,6.80
2018-07-27T07:37:12.711Z,6.03
2018-07-27T07:39:42.470Z,6.12
2018-07-27T07:42:11.146Z,6.53
2018-07-27T07:44:39.615Z,6.05
2018-07-27T07:47:08.293Z,6.72
2018-07-27T07:49:37.006Z,6.45
2018-07-27T07:52:05.868Z,5.85
2018-07-27T07:54:37.721Z,6.17
2018-07-27T07:57:06.532Z,6.33
2018-07-27T07:59:35.091Z,5.67
2018-07-27T08:02:03.866Z,6.05
2018-07-27T08:04:33.489Z,5.50
2018-07-27T08:07:02.236Z,6.20
2018-07-27T08:09:30.926Z,5.15
2018-07-27T08:12:00.376Z,5.25
2018-07-27T08:14:29.328Z,5.10
2018-07-27T08:16:58.119Z,5.05
2018-07-27T08:19:27.638Z,4.92
2018-07-27T08:21:56.358Z,4.80
2018-07-27T08:24:24.806Z,4.45
2018-07-27T08:26:55.507Z,4.30
2018-07-27T08:29:28.153Z,4.40
2018-07-27T08:31:57.344Z,4.55
2018-07-27T08:34:25.911Z,4.10
2018-07-27T08:36:54.823Z,4.12
2018-07-27T08:39:24.762Z,4.47
2018-07-27T08:41:53.536Z,4.22
2018-07-27T08:44:27.533Z,4.22
2018-07-27T08:46:56.289Z,4.40
2018-07-27T08:49:25.051Z,3.80
2018-07-27T08:51:53.879Z,3.70
2018-07-27T08:54:22.669Z,4.08
2018-07-27T08:56:51.333Z,4.00
2018-07-27T08:59:20.027Z,4.00
2018-07-27T09:01:48.791Z,3.98
2018-07-27T09:04:17.529Z,4.50
2018-07-27T09:06:46.264Z,4.20
2018-07-27T09:09:16.132Z,4.30
2018-07-27T09:11:44.837Z,4.30
2018-07-27T09:14:13.701Z,4.50
2018-07-27T09:16:42.423Z,4.10
2018-07-27T09:19:11.123Z,4.00
2018-07-27T09:21:41.798Z,3.50
2018-07-27T09:24:10.669Z,3.60
2018-07-27T09:26:39.339Z,3.87
2018-07-27T09:29:08.017Z,3.77
2018-07-27T09:31:36.699Z,3.95
2018-07-27T09:34:05.518Z,3.90
2018-07-27T09:36:34.201Z,3.58
2018-07-27T09:39:03.066Z,3.37
2018-07-27T09:41:31.801Z,3.50
2018-07-27T09:44:00.384Z,3.90
2018-07-27T09:46:29.177Z,3.60
2018-07-27T09:48:57.851Z,4.25
2018-07-27T09:51:26.386Z,3.85
2018-07-27T09:53:55.166Z,3.50
2018-07-27T09:56:23.925Z,3.70
2018-07-27T09:58:53.370Z,4.12
2018-07-27T10:01:23.353Z,3.50
2018-07-27T10:03:53.413Z,3.50
2018-07-27T10:06:22.147Z,3.80
2018-07-27T10:08:50.838Z,3.47
2018-07-27T10:11:20.007Z,3.70
2018-07-27T10:13:48.731Z,3.90
2018-07-27T10:16:17.459Z,3.80
2018-07-27T10:18:46.201Z,3.75
2018-07-27T10:21:14.918Z,3.70
2018-07-27T10:23:43.614Z,3.98
2018-07-27T10:26:16.324Z,3.95
2018-07-27T10:28:45.001Z,3.40
2018-07-27T10:31:13.654Z,3.80
2018-07-27T10:33:42.393Z,3.72
2018-07-27T10:36:11.028Z,4.00
2018-07-27T10:38:39.781Z,3.87
2018-07-27T10:41:08.397Z,3.83
2018-07-27T10:43:37.053Z,3.50
2018-07-27T10:46:07.385Z,3.70
2018-07-27T10:48:36.091Z,3.55
2018-07-27T10:51:04.783Z,3.60
2018-07-27T10:53:33.431Z,3.40
2018-07-27T10:56:02.205Z,3.58
2018-07-27T10:58:31.838Z,3.40
2018-07-27T11:01:00.486Z,3.20
2018-07-27T11:03:28.973Z,3.40
2018-07-27T11:05:58.536Z,3.37
2018-07-27T11:08:28.171Z,3.30
2018-07-27T11:10:56.871Z,3.35
2018-07-27T11:13:25.541Z,3.00
2018-07-27T11:15:54.270Z,3.10
2018-07-27T11:18:22.969Z,3.05
2018-07-27T11:20:51.630Z,2.98
2018-07-27T11:23:20.278Z,2.67
2018-07-27T11:25:48.928Z,3.20
2018-07-27T11:28:17.600Z,2.98
2018-07-27T11:30:46.691Z,3.00
2018-07-27T11:33:15.366Z,2.90
2018-07-27T11:35:44.105Z,3.00
2018-07-27T11:38:12.811Z,2.62
2018-07-27T11:40:41.703Z,2.98
2018-07-27T11:43:10.454Z,2.58
2018-07-27T11:45:39.123Z,2.80
2018-07-27T11:48:07.805Z,2.50
2018-07-27T11:50:36.486Z,2.80
2018-07-27T11:53:05.251Z,3.00
2018-07-27T11:55:33.915Z,2.65
2018-07-27T11:58:02.580Z,2.47
2018-07-27T12:00:32.174Z,2.30
2018-07-27T12:03:00.876Z,2.85
2018-07-27T12:05:29.684Z,2.22
2018-07-27T12:07:58.195Z,2.33
2018-07-27T12:10:26.953Z,2.40
2018-07-27T12:12:55.852Z,2.47
2018-07-27T12:15:24.348Z,2.60
2018-07-27T12:17:53.040Z,2.52
2018-07-27T12:20:21.865Z,2.30
2018-07-27T12:22:50.552Z,2.62
2018-07-27T12:25:19.291Z,2.20
2018-07-27T12:27:48.094Z,2.40
2018-07-27T12:30:16.747Z,2.62
2018-07-27T12:32:45.193Z,2.67
2018-07-27T12:35:13.872Z,2.12
2018-07-27T12:37:42.625Z,2.90
2018-07-27T12:40:11.320Z,2.20
2018-07-27T12:42:39.990Z,2.08
2018-07-27T12:45:08.686Z,2.50
2018-07-27T12:47:38.135Z,2.22
2018-07-27T12:50:06.893Z,2.30
2018-07-27T12:52:36.273Z,2.10
2018-07-27T12:55:05.653Z,2.30
2018-07-27T12:57:35.078Z,2.40
2018-07-27T13:00:05.399Z,2.30
2018-07-27T13:02:34.146Z,2.42
2018-07-27T13:05:02.877Z,2.80
2018-07-27T13:07:31.666Z,2.50
2018-07-27T13:10:06.497Z,2.12
2018-07-27T13:12:36.908Z,2.45
2018-07-27T13:15:07.740Z,2.30
2018-07-27T13:17:38.099Z,2.62
2018-07-27T13:20:07.543Z,2.50
2018-07-27T13:22:36.312Z,2.50
2018-07-27T13:25:05.167Z,2.45
2018-07-27T13:27:33.810Z,2.27
2018-07-27T13:30:03.866Z,2.47
2018-07-27T13:32:32.543Z,2.40
2018-07-27T13:35:01.361Z,2.42
2018-07-27T13:40:01.264Z,2.45
2018-07-27T13:42:31.290Z,2.50
2018-07-27T13:45:00.083Z,2.72
2018-07-27T13:47:28.813Z,2.50
2018-07-27T13:49:57.551Z,2.58
2018-07-27T13:52:26.241Z,2.67
2018-07-27T13:54:55.388Z,2.45
2018-07-27T13:57:24.118Z,2.70
2018-07-27T13:59:52.915Z,2.50
2018-07-27T14:02:22.083Z,2.80
2018-07-27T14:04:50.839Z,2.60
2018-07-27T14:07:20.135Z,2.70
2018-07-27T14:09:48.845Z,2.30
2018-07-27T14:12:17.376Z,2.85
2018-07-27T14:14:46.076Z,2.52
2018-07-27T14:17:14.796Z,2.70
2018-07-27T14:19:43.513Z,2.42
2018-07-27T14:22:12.228Z,2.67
2018-07-27T14:24:40.945Z,2.50
2018-07-27T14:27:09.904Z,2.60
2018-07-27T14:29:39.130Z,2.47
2018-07-27T14:32:08.712Z,2.60
2018-07-27T14:34:37.473Z,2.75
2018-07-27T14:37:06.321Z,2.70
2018-07-27T14:39:35.005Z,2.80
2018-07-27T14:42:03.755Z,3.00
2018-07-27T14:44:32.629Z,2.80
2018-07-27T14:47:01.296Z,2.80
2018-07-27T14:49:29.992Z,2.92
2018-07-27T14:51:58.675Z,2.70
2018-07-27T14:54:27.430Z,3.00
2018-07-27T14:56:56.190Z,2.95
2018-07-27T14:59:25.378Z,3.08
2018-07-27T15:01:54.056Z,3.20
2018-07-27T15:04:22.778Z,2.85
2018-07-27T15:06:51.515Z,2.80
2018-07-27T15:09:20.142Z,2.92
2018-07-27T15:11:48.800Z,2.70
2018-07-27T15:14:17.522Z,2.90
2018-07-27T15:16:46.755Z,2.95
2018-07-27T15:19:15.428Z,2.85
2018-07-27T15:21:43.930Z,2.77
2018-07-27T15:24:12.662Z,3.17
2018-07-27T15:26:41.403Z,3.20
2018-07-27T15:29:11.066Z,3.15
2018-07-27T15:31:39.766Z,2.90
2018-07-27T15:34:08.258Z,3.85
2018-07-27T15:36:36.823Z,3.52
2018-07-27T15:39:07.888Z,3.80
2018-07-27T15:41:36.861Z,3.60
2018-07-27T15:44:05.633Z,3.70
2018-07-27T15:46:34.350Z,3.60
2018-07-27T15:49:03.572Z,3.60
2018-07-27T15:51:33.231Z,3.70
2018-07-27T15:54:02.603Z,3.83
2018-07-27T15:56:32.186Z,4.30
2018-07-27T15:59:01.801Z,4.33
2018-07-27T16:01:30.585Z,4.58
2018-07-27T16:03:59.282Z,5.15
2018-07-27T16:06:27.826Z,5.12
2018-07-27T16:08:56.552Z,5.62
2018-07-27T16:11:25.363Z,6.28
2018-07-27T16:13:54.262Z,5.87
2018-07-27T16:16:23.005Z,6.12
2018-07-27T16:18:51.634Z,6.75
2018-07-27T16:21:20.345Z,6.37
2018-07-27T16:23:48.782Z,6.78
2018-07-27T16:26:17.520Z,6.17
2018-07-27T16:28:46.183Z,6.95
2018-07-27T16:31:14.945Z,7.30
2018-07-27T16:33:43.613Z,7.50
2018-07-27T16:36:12.323Z,8.73
2018-07-27T16:38:41.050Z,9.40
2018-07-27T16:41:09.804Z,10.27
2018-07-27T16:43:38.481Z,10.73
2018-07-27T16:46:07.216Z,11.27
2018-07-27T16:48:35.906Z,10.93
2018-07-27T16:51:04.699Z,10.90
2018-07-27T16:53:34.454Z,10.50
2018-07-27T16:56:03.255Z,9.40
2018-07-27T16:58:31.993Z,8.70
2018-07-27T17:01:00.699Z,7.93
2018-07-27T17:03:29.404Z,6.80
2018-07-27T17:05:58.062Z,7.13
2018-07-27T17:08:26.883Z,8.23
2018-07-27T17:10:55.613Z,8.47
2018-07-27T17:13:24.351Z,7.87
2018-07-27T17:15:53.486Z,7.60
2018-07-27T17:18:22.233Z,7.73
2018-07-27T17:20:50.934Z,6.77
2018-07-27T17:23:19.633Z,6.00
2018-07-27T17:25:48.218Z,5.10
2018-07-27T17:30:39.294Z,6.30
2018-07-27T17:33:08.037Z,5.50
2018-07-27T17:35:36.698Z,5.97
2018-07-27T17:38:05.601Z,7.10
2018-07-27T17:40:34.109Z,6.77
2018-07-27T17:43:02.825Z,8.90
2018-07-27T17:45:32.250Z,7.43
2018-07-27T17:48:01.044Z,7.97
2018-07-27T17:50:29.710Z,7.23
2018-07-27T17:52:59.411Z,6.57
2018-07-27T17:55:28.146Z,7.73
2018-07-27T17:57:58.651Z,7.20
2018-07-27T18:00:27.490Z,8.10
2018-07-27T18:02:56.172Z,7.87
2018-07-27T18:05:24.875Z,7.83
2018-07-27T18:07:53.652Z,7.63
2018-07-27T18:10:22.077Z,8.53
2018-07-27T18:12:50.729Z,8.50
2018-07-27T18:15:19.826Z,8.77
2018-07-27T18:17:48.453Z,9.50
2018-07-27T18:20:17.198Z,9.10
2018-07-27T18:22:45.953Z,8.87
2018-07-27T18:25:17.172Z,9.30
2018-07-27T18:27:46.563Z,9.30
2018-07-27T18:30:15.422Z,10.07
2018-07-27T18:32:44.104Z,9.10
2018-07-27T18:35:12.741Z,9.37
2018-07-27T18:37:41.455Z,8.97
2018-07-27T18:40:10.163Z,9.57
2018-07-27T18:42:38.803Z,10.10
2018-07-27T18:45:07.875Z,10.67
2018-07-27T18:47:36.686Z,10.57
2018-07-27T18:50:07.085Z,10.50
2018-07-27T18:52:36.283Z,12.80
2018-07-27T18:55:05.521Z,12.80
2018-07-27T18:57:34.263Z,12.90
2018-07-27T19:00:03.266Z,11.90
2018-07-27T19:02:32.278Z,12.20
2018-07-27T19:05:00.742Z,12.30
2018-07-27T19:07:29.480Z,12.27
2018-07-27T19:09:58.162Z,13.10
2018-07-27T19:12:26.952Z,13.13
2018-07-27T19:14:55.716Z,13.23
2018-07-27T19:17:24.561Z,12.33
2018-07-27T19:19:53.260Z,11.70
2018-07-27T19:22:22.003Z,11.60
2018-07-27T19:24:50.715Z,10.27
2018-07-27T19:27:19.417Z,10.80
2018-07-27T19:29:48.075Z,11.60
2018-07-27T19:32:16.773Z,11.53
2018-07-27T19:34:45.575Z,12.97
2018-07-27T19:37:14.303Z,11.80
2018-07-27T19:39:42.998Z,10.43
2018-07-27T19:42:11.696Z,11.17
2018-07-27T19:44:40.550Z,11.20
2018-07-27T19:47:09.643Z,11.13
2018-07-27T19:49:38.171Z,10.80
2018-07-27T19:52:07.443Z,11.13
2018-07-27T19:54:36.225Z,11.00
2018-07-27T19:57:04.948Z,11.63
2018-07-27T19:59:33.605Z,11.27
2018-07-27T20:02:02.357Z,11.93
2018-07-27T20:04:30.918Z,11.97
2018-07-27T20:06:59.681Z,10.87
2018-07-27T20:09:29.087Z,11.17
2018-07-27T20:11:57.951Z,11.97
2018-07-27T20:14:27.092Z,12.83
2018-07-27T20:16:55.860Z,12.90
2018-07-27T20:19:25.088Z,19.77
2018-07-27T20:21:53.832Z,17.90
2018-07-27T20:24:22.545Z,16.77
2018-07-27T20:26:51.297Z,16.67
2018-07-27T20:29:20.091Z,18.67
2018-07-27T20:31:48.940Z,18.73
2018-07-27T20:34:18.518Z,17.80
2018-07-27T20:36:47.217Z,17.20
2018-07-27T20:39:15.962Z,16.07
2018-07-27T20:41:44.745Z,14.83
2018-07-27T20:44:13.490Z,14.30
2018-07-27T20:46:42.037Z,14.67
2018-07-27T20:49:11.553Z,14.00
2018-07-27T20:51:40.885Z,13.40
2018-07-27T20:54:10.724Z,15.37
2018-07-27T20:56:39.493Z,15.13
2018-07-27T20:59:09.131Z,14.93
2018-07-27T21:01:37.877Z,13.17
2018-07-27T21:04:06.416Z,13.60
2018-07-27T21:06:35.146Z,13.67
2018-07-27T21:09:06.467Z,13.93
2018-07-27T21:11:35.881Z,13.23
2018-07-27T21:14:05.248Z,14.27
2018-07-27T21:16:34.032Z,13.23
2018-07-27T21:19:02.775Z,12.53
2018-07-27T21:21:31.704Z,12.97
2018-07-27T21:24:00.454Z,14.13
2018-07-27T21:26:29.135Z,14.10
2018-07-27T21:28:57.706Z,13.47
2018-07-27T21:31:26.377Z,12.57
2018-07-27T21:33:55.073Z,15.17
2018-07-27T21:36:23.757Z,14.73
2018-07-27T21:38:52.465Z,15.07
2018-07-27T21:41:21.465Z,15.30
2018-07-27T21:43:50.213Z,17.53
2018-07-27T21:46:19.038Z,20.13
2018-07-27T21:48:47.730Z,20.67
2018-07-27T21:51:16.462Z,19.60
2018-07-27T21:53:45.935Z,17.97
2018-07-27T21:56:14.735Z,16.07
2018-07-27T21:58:43.620Z,15.17
2018-07-27T22:01:12.480Z,15.77
2018-07-27T22:03:40.900Z,14.70
2018-07-27T22:06:09.626Z,15.57
2018-07-27T22:08:38.273Z,15.40
2018-07-27T22:11:07.183Z,16.03
2018-07-27T22:13:35.879Z,15.97
2018-07-27T22:16:04.577Z,15.60
2018-07-27T22:18:33.263Z,16.77
2018-07-27T22:21:01.962Z,16.10
2018-07-27T22:23:30.470Z,16.20
2018-07-27T22:25:59.128Z,16.60
2018-07-27T22:28:27.792Z,17.10
2018-07-27T22:30:56.571Z,18.60
2018-07-27T22:33:25.248Z,19.37
2018-07-27T22:35:53.957Z,20.50
2018-07-27T22:38:22.661Z,21.47
2018-07-27T22:40:51.138Z,35.73
2018-07-27T22:43:19.816Z,29.20
2018-07-27T22:45:48.325Z,25.90
2018-07-27T22:48:17.028Z,28.03
2018-07-27T22:50:46.344Z,22.97
2018-07-27T22:53:15.083Z,21.43
2018-07-27T22:55:43.829Z,19.10
2018-07-27T22:58:12.493Z,18.27
2018-07-27T23:00:41.695Z,18.57
2018-07-27T23:03:10.350Z,19.37
2018-07-27T23:05:39.000Z,18.47
2018-07-27T23:08:07.680Z,16.93
2018-07-27T23:10:36.325Z,17.80
2018-07-27T23:13:05.040Z,16.93
2018-07-27T23:15:33.808Z,16.50
2018-07-27T23:18:02.505Z,16.93
2018-07-27T23:20:31.178Z,17.27
2018-07-27T23:22:59.809Z,17.13
2018-07-27T23:25:28.307Z,16.60
2018-07-27T23:27:56.927Z,18.50
2018-07-27T23:30:25.866Z,18.57
2018-07-27T23:32:54.706Z,19.83
2018-07-27T23:35:23.378Z,21.13
2018-07-27T23:37:52.178Z,20.77
2018-07-27T23:40:20.811Z,20.23
2018-07-27T23:42:49.279Z,20.67
2018-07-27T23:45:17.908Z,20.50
2018-07-27T23:47:46.589Z,20.30
2018-07-27T23:50:15.303Z,19.80
2018-07-27T23:52:44.006Z,20.60
2018-07-27T23:55:12.771Z,20.90
2018-07-27T23:57:41.410Z,19.70
